Pagrindinis puslapis
METAR-TAF:

METAR-TAF

Oro uostai :

Odesa, Ukraina

platuma: 46-26N, ilguma: 030-46E, Aukštis: 42 m

Dabartinis oras

Ataskaita buvo paskelbta 17 minutes, ne 23:00 UTC
Vėjas 6 kt iš Šiaurės Vakarų
Temperatūra 7°C
Drėgmė 66%
Slėgis 1021 hPa
Matomumas 10 km arba daugiau
nėra debesų žemiau 1500 m ir nėra kamuolinių lietaus debesų

METAR: UKOO 202300Z 31003MPS CAVOK 07/01 Q1021 R16/090060 NOSIG

Laikas: 02:17 (23:17 UTC)

Prognozė

Ataskaita buvo paskelbta 6 valandos ir 10 minutes, ne 17:07 UTC
Prognozė galioja nuo 20 metu 18 UTC su 21 metu 18 UTC
Vėjas 12 kt iš Šiaurės/Šiaurės Vakarų su gūsio iki 23 kt
Matomumas: 6000 m
Su prošvaistėmis ne aukštis 1000 ft
Išsisklaidę debesys ne aukštis 2000 ft, Liūtiniai kamuoliniai debesys.
Tapsmas
nuo 21 metu 14 UTC su 21 metu 15 UTC
Vėjas 6 kt iš Vakarų/Šiaurės Vakarų

TAF: UKOO 201707Z 2018/2118 33006G12MPS 6000 BKN010 SCT020CB BECMG 2114/2115 29003MPS

Orai ataskaitas ir orų prognozės (METAR, TAF).

turimą stotys yra geltonos ir raudonos taškus žemėlapyje.

Perkelti pele per norėdami pamatyti stoties vardą.

Tada spustelėkite, norėdami matyti oro stebėjimo ir prognozės.

Norėdami pakeisti žemėlapį: spustelėkite ant žalios mygtukų su juodo kryžiaus žemyn,; žalią mygtuką su brūkšneliu, jei norite nutolinti; arba žalių rodyklių gretimoms žemėlapius.


METAR-TAF: